| time (UTC) | temp C | wind direction | speed KPH | gust KPH | rain 1hr cm | rain 24hr cm | rain mn cm | humidity % | barometer mb |
| 20260507104506 | 7 | 28 | 0.0 | 0.0 | 0.00 | 0.81 | 0.36 | 95 | 1006.5 |
| 20260507103005 | 7 | 282 | 0.0 | 0.0 | 0.00 | 0.81 | 0.36 | 96 | 1006.2 |
| 20260507101504 | 7 | 282 | 0.0 | 0.0 | 0.00 | 0.81 | 0.36 | 95 | 1005.7 |
| 20260507100003 | 7 | 282 | 0.0 | 0.0 | 0.00 | 0.81 | 0.36 | 95 | 1005.8 |
| 20260507094501 | 7 | 282 | 0.0 | 0.0 | 0.00 | 0.81 | 0.36 | 94 | 1005.2 |
| 20260507093059 | 7 | 282 | 0.0 | 1.6 | 0.00 | 0.81 | 0.36 | 94 | 1005.1 |
| 20260507091557 | 8 | 330 | 0.0 | 0.0 | 0.00 | 0.81 | 0.36 | 93 | 1005.1 |
| 20260507090101 | 8 | 354 | 0.0 | 8.0 | 0.00 | 0.81 | 0.36 | 93 | 1005.2 |
| 20260507084552 | 8 | 36 | 0.0 | 6.4 | 0.00 | 0.81 | 0.36 | 94 | 1005.5 |
| 20260507083049 | 8 | 345 | 0.0 | 9.7 | 0.00 | 0.81 | 0.36 | 96 | 1004.7 |
| 20260507081546 | 8 | 42 | 0.0 | 3.2 | 0.00 | 0.81 | 0.36 | 96 | 1005.0 |
| 20260507080044 | 8 | 351 | 0.0 | 3.2 | 0.00 | 0.81 | 0.36 | 96 | 1004.6 |
| 20260507074554 | 9 | 8 | 0.0 | 4.8 | 0.00 | 0.81 | 0.36 | 96 | 1004.8 |
| 20260507073045 | 9 | 35 | 1.6 | 4.8 | 0.00 | 0.81 | 0.36 | 96 | 1004.5 |
| 20260507071540 | 9 | 356 | 0.0 | 6.4 | 0.00 | 0.81 | 0.36 | 97 | 1004.6 |
| 20260507070041 | 9 | 41 | 0.0 | 3.2 | 0.00 | 0.81 | 0.36 | 98 | 1004.4 |
| 20260507064535 | 9 | 37 | 0.0 | 3.2 | 0.00 | 0.81 | 0.36 | 98 | 1003.9 |
| 20260507063048 | 10 | 271 | 0.0 | 1.6 | 0.03 | 0.81 | 0.36 | 98 | 1003.9 |
| 20260507061534 | 10 | 295 | 0.0 | 1.6 | 0.03 | 0.81 | 0.36 | 98 | 1003.9 |
| 20260507060044 | 10 | 162 | 0.0 | 4.8 | 0.03 | 0.81 | 0.36 | 98 | 1003.7 |
| 20260507054530 | 10 | 263 | 0.0 | 12.9 | 0.03 | 0.81 | 0.36 | 98 | 1004.0 |
| 20260507053030 | 10 | 32 | 4.8 | 19.3 | 0.10 | 0.79 | 0.33 | 99 | 1003.6 |
| 20260507051529 | 11 | 38 | 0.0 | 1.6 | 0.25 | 0.79 | 0.33 | 100 | 1003.8 |
| 20260507050033 | 10 | 30 | 0.0 | 0.0 | 0.33 | 0.79 | 0.33 | 99 | 1003.5 |
| 20260507044525 | 10 | 34 | 0.0 | 11.3 | 0.36 | 0.79 | 0.33 | 99 | 1003.3 |
| 20260507043025 | 10 | 41 | 3.2 | 8.0 | 0.25 | 0.69 | 0.23 | 99 | 1003.7 |
| 20260507041520 | 10 | 203 | 3.2 | 19.3 | 0.13 | 0.53 | 0.08 | 99 | 1003.3 |
| 20260507040019 | 10 | 191 | 4.8 | 12.9 | 0.05 | 0.46 | 0.00 | 99 | 1002.9 |
| 20260507034529 | 10 | 185 | 4.8 | 17.7 | 0.03 | 0.43 | 0.43 | 99 | 1003.0 |
| 20260507033015 | 10 | 238 | 3.2 | 11.3 | 0.03 | 0.43 | 0.43 | 99 | 1003.1 |
| 20260507031514 | 10 | 197 | 8.0 | 16.1 | 0.00 | 0.41 | 0.41 | 99 | 1003.0 |
| 20260507030013 | 10 | 197 | 11.3 | 19.3 | 0.00 | 0.41 | 0.41 | 99 | 1003.1 |
| 20260507024511 | 10 | 198 | 11.3 | 22.5 | 0.00 | 0.41 | 0.41 | 99 | 1003.3 |
| 20260507023008 | 10 | 235 | 11.3 | 25.7 | 0.00 | 0.41 | 0.41 | 99 | 1003.5 |
| 20260507021507 | 10 | 202 | 4.8 | 17.7 | 0.00 | 0.41 | 0.41 | 99 | 1003.7 |
| 20260507020015 | 10 | 218 | 12.9 | 25.7 | 0.00 | 0.41 | 0.41 | 99 | 1003.9 |
| 20260507014505 | 10 | 169 | 19.3 | 35.4 | 0.00 | 0.41 | 0.41 | 99 | 1004.1 |
| 20260507013003 | 10 | 205 | 19.3 | 33.8 | 0.00 | 0.41 | 0.41 | 99 | 1004.1 |
| 20260507011610 | 10 | 198 | 22.5 | 30.6 | 0.00 | 0.41 | 0.41 | 98 | 1004.3 |
| 20260507010109 | 10 | 200 | 17.7 | 30.6 | 0.00 | 0.41 | 0.41 | 98 | 1004.2 |
| 20260507004555 | 10 | 199 | 20.9 | 29.0 | 0.00 | 0.41 | 0.41 | 98 | 1004.5 |
| 20260507003153 | 10 | 181 | 16.1 | 27.4 | 0.00 | 0.41 | 0.41 | 98 | 1004.5 |
| 20260507001554 | 10 | 202 | 19.3 | 29.0 | 0.00 | 0.41 | 0.41 | 98 | 1004.6 |
| 20260507000051 | 10 | 201 | 17.7 | 29.0 | 0.00 | 0.41 | 0.41 | 98 | 1004.4 |
| 20260506234550 | 10 | 206 | 20.9 | 32.2 | 0.00 | 0.41 | 0.41 | 98 | 1004.4 |
| 20260506233102 | 10 | 210 | 22.5 | 35.4 | 0.00 | 0.41 | 0.41 | 98 | 1004.6 |
| 20260506231545 | 10 | 186 | 20.9 | 33.8 | 0.00 | 0.41 | 0.41 | 97 | 1004.7 |
| 20260506230043 | 10 | 205 | 22.5 | 35.4 | 0.00 | 0.41 | 0.41 | 97 | 1004.9 |
| 20260506224542 | 10 | 217 | 24.1 | 35.4 | 0.00 | 0.41 | 0.41 | 97 | 1005.0 |
| 20260506223040 | 10 | 181 | 24.1 | 35.4 | 0.00 | 0.41 | 0.41 | 97 | 1005.1 |
| 20260506221538 | 10 | 186 | 24.1 | 35.4 | 0.00 | 0.41 | 0.41 | 97 | 1005.2 |
| 20260506220036 | 10 | 195 | 24.1 | 37.0 | 0.08 | 0.41 | 0.41 | 97 | 1005.2 |
| 20260506214533 | 10 | 204 | 24.1 | 37.0 | 0.13 | 0.41 | 0.41 | 97 | 1005.4 |
| 20260506213030 | 10 | 188 | 17.7 | 25.7 | 0.13 | 0.41 | 0.41 | 97 | 1005.5 |
| 20260506211530 | 10 | 165 | 17.7 | 24.1 | 0.20 | 0.41 | 0.41 | 97 | 1005.7 |
| 20260506210034 | 10 | 194 | 11.3 | 16.1 | 0.18 | 0.33 | 0.33 | 97 | 1005.9 |
| 20260506204526 | 10 | 192 | 12.9 | 16.1 | 0.18 | 0.28 | 0.28 | 96 | 1005.9 |
| 20260506203024 | 10 | 186 | 12.9 | 20.9 | 0.20 | 0.25 | 0.25 | 95 | 1005.7 |
| 20260506201525 | 11 | 198 | 12.9 | 20.9 | 0.20 | 0.20 | 0.20 | 96 | 1006.1 |
| 20260506200035 | 11 | 165 | 6.4 | 19.3 | 0.15 | 0.15 | 0.15 | 96 | 1006.4 |
| 20260506194521 | 11 | 160 | 4.8 | 17.7 | 0.10 | 0.10 | 0.10 | 95 | 1006.5 |
| 20260506193019 | 11 | 180 | 6.4 | 22.5 | 0.05 | 0.05 | 0.05 | 94 | 1006.5 |
| 20260506191518 | 11 | 221 | 22.5 | 33.8 | 0.00 | 0.00 | 0.00 | 93 | 1006.2 |
| 20260506190018 | 11 | 189 | 17.7 | 37.0 | 0.00 | 0.00 | 0.00 | 92 | 1005.9 |
| 20260506184515 | 11 | 166 | 29.0 | 38.6 | 0.00 | 0.00 | 0.00 | 92 | 1006.0 |
| 20260506183013 | 11 | 211 | 22.5 | 33.8 | 0.00 | 0.00 | 0.00 | 93 | 1006.3 |
| 20260506181516 | 10 | 203 | 22.5 | 32.2 | 0.00 | 0.00 | 0.00 | 94 | 1006.4 |
| 20260506180016 | 10 | 189 | 19.3 | 30.6 | 0.00 | 0.00 | 0.00 | 94 | 1006.6 |
| 20260506174509 | 10 | 187 | 11.3 | 19.3 | 0.00 | 0.00 | 0.00 | 94 | 1006.7 |
| 20260506173006 | 10 | 195 | 9.7 | 17.7 | 0.00 | 0.00 | 0.00 | 94 | 1006.8 |
| 20260506171504 | 10 | 196 | 12.9 | 0.0 | 0.00 | 0.00 | 0.00 | 94 | 1007.1 |
| 20260506170004 | 10 | 216 | 12.9 | 20.9 | 0.00 | 0.00 | 0.00 | 94 | 1007.4 |
| 20260506164502 | 10 | 198 | 16.1 | 24.1 | 0.00 | 0.00 | 0.00 | 94 | 1007.7 |
| 20260506163107 | 10 | 202 | 19.3 | 25.7 | 0.00 | 0.00 | 0.00 | 94 | 1008.1 |
| 20260506161600 | 10 | 193 | 19.3 | 27.4 | 0.00 | 0.00 | 0.00 | 94 | 1008.2 |
| 20260506160112 | 10 | 182 | 22.5 | 32.2 | 0.00 | 0.00 | 0.00 | 94 | 1008.5 |
| 20260506154558 | 10 | 179 | 16.1 | 24.1 | 0.00 | 0.00 | 0.00 | 93 | 1008.7 |
| 20260506153100 | 10 | 181 | 16.1 | 25.7 | 0.00 | 0.00 | 0.00 | 94 | 1008.8 |
| 20260506151555 | 10 | 163 | 19.3 | 32.2 | 0.00 | 0.00 | 0.00 | 94 | 1008.6 |
| 20260506150054 | 10 | 195 | 17.7 | 24.1 | 0.00 | 0.00 | 0.00 | 94 | 1008.3 |
| 20260506144553 | 10 | 184 | 12.9 | 22.5 | 0.00 | 0.00 | 0.00 | 94 | 1008.1 |
| 20260506143053 | 10 | 178 | 12.9 | 19.3 | 0.00 | 0.00 | 0.00 | 94 | 1008.4 |
| 20260506141608 | 10 | 175 | 12.9 | 19.3 | 0.00 | 0.00 | 0.00 | 94 | 1008.8 |
| 20260506140051 | 10 | 191 | 12.9 | 19.3 | 0.00 | 0.00 | 0.00 | 95 | 1008.8 |
| 20260506134550 | 10 | 173 | 14.5 | 20.9 | 0.00 | 0.00 | 0.00 | 94 | 1008.7 |
| 20260506133053 | 10 | 180 | 16.1 | 24.1 | 0.00 | 0.00 | 0.00 | 94 | 1008.6 |
| 20260506131548 | 10 | 178 | 14.5 | 22.5 | 0.00 | 0.00 | 0.00 | 94 | 1008.5 |
| 20260506130048 | 10 | 165 | 14.5 | 24.1 | 0.00 | 0.00 | 0.00 | 94 | 1008.5 |
| 20260506124547 | 10 | 195 | 14.5 | 20.9 | 0.00 | 0.00 | 0.00 | 94 | 1008.4 |
| 20260506123047 | 10 | 179 | 11.3 | 14.5 | 0.00 | 0.00 | 0.00 | 94 | 1008.7 |
| 20260506121554 | 10 | 172 | 9.7 | 16.1 | 0.00 | 0.00 | 0.00 | 94 | 1008.7 |
| 20260506120108 | 10 | 189 | 12.9 | 17.7 | 0.00 | 0.00 | 0.00 | 94 | 1008.8 |
| 20260506114546 | 10 | 189 | 11.3 | 19.3 | 0.00 | 0.00 | 0.00 | 94 | 1009.2 |
| 20260506113043 | 10 | 182 | 11.3 | 14.5 | 0.00 | 0.00 | 0.00 | 94 | 1009.0 |
| 20260506111541 | 10 | 176 | 8.0 | 14.5 | 0.00 | 0.00 | 0.00 | 93 | 1009.0 |
| 20260506110040 | 10 | 181 | 11.3 | 17.7 | 0.00 | 0.00 | 0.00 | 94 | 1009.0 |